Congaree, South Carolina
Current Conditions -  °F | °C
As of 3:58 PM on Thursday 20 Nov 2014 (Local Time) from KMMT Reporting Station
Scattered Clouds Scattered Clouds  
Wind Chill: 61°   Ceiling: Unl
Heat Index: 61°   Visibility: 10mi
Dew Point: 31°   Wind: 18mph
Humidity: 33%   Direction: 250°WSW
Pressure: 30.11"   Gusts: 23mph
Location:  33.9203°N, 80.6788°W
Report Text: KMMT 202058Z 25016G20KT 10SM SCT250 16/00 A3011 RMK AO2A SLP200 T01601005 55012
Loading
Personal Weather Stations






























Interactive Weather Map New forecast layout! Learn more

10-Day Weather Forecast

Advertisements
Track Severe Weather on mobile